sensor_id;sensor_type;location;lat;lon;timestamp;temperature;humidity
37788;DHT22;23627;53.302;-6.362;2023-07-20T00:01:25;14.70;99.90
37788;DHT22;23627;53.302;-6.362;2023-07-20T00:03:51;14.70;99.90
37788;DHT22;23627;53.302;-6.362;2023-07-20T00:06:24;14.70;99.90
37788;DHT22;23627;53.302;-6.362;2023-07-20T00:08:55;14.70;99.90
37788;DHT22;23627;53.302;-6.362;2023-07-20T00:11:24;14.70;99.90
37788;DHT22;23627;53.302;-6.362;2023-07-20T00:13:50;14.70;99.90
37788;DHT22;23627;53.302;-6.362;2023-07-20T00:16:16;14.70;99.90
37788;DHT22;23627;53.302;-6.362;2023-07-20T00:18:42;14.70;99.90
37788;DHT22;23627;53.302;-6.362;2023-07-20T00:21:07;14.60;99.90
37788;DHT22;23627;53.302;-6.362;2023-07-20T00:23:33;14.70;99.90
37788;DHT22;23627;53.302;-6.362;2023-07-20T00:25:59;14.70;99.90
37788;DHT22;23627;53.302;-6.362;2023-07-20T00:28:24;14.70;99.90
37788;DHT22;23627;53.302;-6.362;2023-07-20T00:30:50;14.70;99.90
37788;DHT22;23627;53.302;-6.362;2023-07-20T00:33:17;14.60;99.90
37788;DHT22;23627;53.302;-6.362;2023-07-20T00:35:43;14.60;99.90
37788;DHT22;23627;53.302;-6.362;2023-07-20T00:38:09;14.70;99.90
37788;DHT22;23627;53.302;-6.362;2023-07-20T00:40:39;14.70;99.90
37788;DHT22;23627;53.302;-6.362;2023-07-20T00:43:05;14.60;99.90
37788;DHT22;23627;53.302;-6.362;2023-07-20T00:45:31;14.70;99.90
37788;DHT22;23627;53.302;-6.362;2023-07-20T00:47:58;14.60;99.90
37788;DHT22;23627;53.302;-6.362;2023-07-20T00:50:24;14.60;99.90
37788;DHT22;23627;53.302;-6.362;2023-07-20T00:52:51;14.60;99.90
37788;DHT22;23627;53.302;-6.362;2023-07-20T00:55:19;14.60;99.90
37788;DHT22;23627;53.302;-6.362;2023-07-20T00:57:45;14.50;99.90
37788;DHT22;23627;53.302;-6.362;2023-07-20T01:00:11;14.50;99.90
37788;DHT22;23627;53.302;-6.362;2023-07-20T01:02:37;14.60;99.90
37788;DHT22;23627;53.302;-6.362;2023-07-20T01:05:03;14.50;99.90
37788;DHT22;23627;53.302;-6.362;2023-07-20T01:07:34;14.50;99.90
37788;DHT22;23627;53.302;-6.362;2023-07-20T01:12:47;14.50;99.90
37788;DHT22;23627;53.302;-6.362;2023-07-20T01:15:13;14.50;99.90
37788;DHT22;23627;53.302;-6.362;2023-07-20T01:17:40;14.50;99.90
37788;DHT22;23627;53.302;-6.362;2023-07-20T01:20:07;14.50;99.90
37788;DHT22;23627;53.302;-6.362;2023-07-20T01:31:21;14.40;99.90
37788;DHT22;23627;53.302;-6.362;2023-07-20T01:33:49;14.50;99.90
37788;DHT22;23627;53.302;-6.362;2023-07-20T01:36:18;14.50;99.90
37788;DHT22;23627;53.302;-6.362;2023-07-20T01:38:44;14.40;99.90
37788;DHT22;23627;53.302;-6.362;2023-07-20T01:41:10;14.40;99.90
37788;DHT22;23627;53.302;-6.362;2023-07-20T01:43:36;14.40;99.90
37788;DHT22;23627;53.302;-6.362;2023-07-20T01:46:02;14.40;99.90
37788;DHT22;23627;53.302;-6.362;2023-07-20T01:48:28;14.40;99.90
37788;DHT22;23627;53.302;-6.362;2023-07-20T01:50:54;14.40;99.90
37788;DHT22;23627;53.302;-6.362;2023-07-20T01:53:20;14.40;99.90
37788;DHT22;23627;53.302;-6.362;2023-07-20T01:55:46;14.40;99.90
37788;DHT22;23627;53.302;-6.362;2023-07-20T01:58:12;14.40;99.90
37788;DHT22;23627;53.302;-6.362;2023-07-20T02:00:38;14.40;99.90
37788;DHT22;23627;53.302;-6.362;2023-07-20T02:03:04;14.40;99.90
37788;DHT22;23627;53.302;-6.362;2023-07-20T02:05:30;14.40;99.90
37788;DHT22;23627;53.302;-6.362;2023-07-20T02:07:55;14.30;99.90
37788;DHT22;23627;53.302;-6.362;2023-07-20T02:10:21;14.30;99.90
37788;DHT22;23627;53.302;-6.362;2023-07-20T02:12:47;14.30;99.90
37788;DHT22;23627;53.302;-6.362;2023-07-20T02:15:14;14.30;99.90
37788;DHT22;23627;53.302;-6.362;2023-07-20T02:17:42;14.30;99.90
37788;DHT22;23627;53.302;-6.362;2023-07-20T02:20:08;14.30;99.90
37788;DHT22;23627;53.302;-6.362;2023-07-20T02:22:36;14.20;99.90
37788;DHT22;23627;53.302;-6.362;2023-07-20T02:25:04;14.20;99.90
37788;DHT22;23627;53.302;-6.362;2023-07-20T02:27:29;14.30;99.90
37788;DHT22;23627;53.302;-6.362;2023-07-20T02:29:56;14.20;99.90
37788;DHT22;23627;53.302;-6.362;2023-07-20T02:32:22;14.20;99.90
37788;DHT22;23627;53.302;-6.362;2023-07-20T02:34:48;14.20;99.90
37788;DHT22;23627;53.302;-6.362;2023-07-20T02:37:13;14.20;99.90
37788;DHT22;23627;53.302;-6.362;2023-07-20T02:39:39;14.20;99.90
37788;DHT22;23627;53.302;-6.362;2023-07-20T02:42:05;14.20;99.90
37788;DHT22;23627;53.302;-6.362;2023-07-20T02:44:31;14.10;99.90
37788;DHT22;23627;53.302;-6.362;2023-07-20T02:46:57;14.10;99.90
37788;DHT22;23627;53.302;-6.362;2023-07-20T02:49:22;14.10;99.90
37788;DHT22;23627;53.302;-6.362;2023-07-20T02:51:48;14.10;99.90
37788;DHT22;23627;53.302;-6.362;2023-07-20T02:54:15;14.10;99.90
37788;DHT22;23627;53.302;-6.362;2023-07-20T02:56:40;14.00;99.90
37788;DHT22;23627;53.302;-6.362;2023-07-20T02:59:06;14.00;99.90
37788;DHT22;23627;53.302;-6.362;2023-07-20T03:01:32;14.00;99.90
37788;DHT22;23627;53.302;-6.362;2023-07-20T03:03:58;14.00;99.90
37788;DHT22;23627;53.302;-6.362;2023-07-20T03:06:23;14.00;99.90
37788;DHT22;23627;53.302;-6.362;2023-07-20T03:08:49;14.00;99.90
37788;DHT22;23627;53.302;-6.362;2023-07-20T03:11:19;14.00;99.90
37788;DHT22;23627;53.302;-6.362;2023-07-20T03:13:46;13.90;99.90
37788;DHT22;23627;53.302;-6.362;2023-07-20T03:16:14;13.90;99.90
37788;DHT22;23627;53.302;-6.362;2023-07-20T03:18:41;13.90;99.90
37788;DHT22;23627;53.302;-6.362;2023-07-20T03:21:08;13.90;99.90
37788;DHT22;23627;53.302;-6.362;2023-07-20T03:23:34;13.90;99.90
37788;DHT22;23627;53.302;-6.362;2023-07-20T03:26:00;13.80;99.90
37788;DHT22;23627;53.302;-6.362;2023-07-20T03:28:26;13.80;99.90
37788;DHT22;23627;53.302;-6.362;2023-07-20T03:30:58;13.80;99.90
37788;DHT22;23627;53.302;-6.362;2023-07-20T03:33:29;13.80;99.90
37788;DHT22;23627;53.302;-6.362;2023-07-20T03:35:55;13.80;99.90
37788;DHT22;23627;53.302;-6.362;2023-07-20T03:38:24;13.80;99.90
37788;DHT22;23627;53.302;-6.362;2023-07-20T03:40:55;13.80;99.90
37788;DHT22;23627;53.302;-6.362;2023-07-20T03:43:22;13.80;99.90
37788;DHT22;23627;53.302;-6.362;2023-07-20T03:45:48;13.70;99.90
37788;DHT22;23627;53.302;-6.362;2023-07-20T03:48:18;13.80;99.90
37788;DHT22;23627;53.302;-6.362;2023-07-20T03:50:45;13.70;99.90
37788;DHT22;23627;53.302;-6.362;2023-07-20T03:53:12;13.70;99.90
37788;DHT22;23627;53.302;-6.362;2023-07-20T03:55:37;13.80;99.90
37788;DHT22;23627;53.302;-6.362;2023-07-20T03:58:06;13.70;99.90
37788;DHT22;23627;53.302;-6.362;2023-07-20T04:00:32;13.70;99.90
37788;DHT22;23627;53.302;-6.362;2023-07-20T04:02:57;13.70;99.90
37788;DHT22;23627;53.302;-6.362;2023-07-20T04:05:24;13.70;99.90
37788;DHT22;23627;53.302;-6.362;2023-07-20T04:07:51;13.80;99.90
37788;DHT22;23627;53.302;-6.362;2023-07-20T04:10:20;13.80;99.90
37788;DHT22;23627;53.302;-6.362;2023-07-20T04:12:46;13.70;99.90
37788;DHT22;23627;53.302;-6.362;2023-07-20T04:15:15;13.80;99.90
37788;DHT22;23627;53.302;-6.362;2023-07-20T04:17:41;13.80;99.90
37788;DHT22;23627;53.302;-6.362;2023-07-20T04:20:07;13.80;99.90
37788;DHT22;23627;53.302;-6.362;2023-07-20T04:22:34;13.80;99.90
37788;DHT22;23627;53.302;-6.362;2023-07-20T04:24:59;13.80;99.90
37788;DHT22;23627;53.302;-6.362;2023-07-20T04:27:25;13.70;99.90
37788;DHT22;23627;53.302;-6.362;2023-07-20T04:29:52;13.70;99.90
37788;DHT22;23627;53.302;-6.362;2023-07-20T04:32:18;13.70;99.90
37788;DHT22;23627;53.302;-6.362;2023-07-20T04:34:43;13.70;99.90
37788;DHT22;23627;53.302;-6.362;2023-07-20T04:37:09;13.70;99.90
37788;DHT22;23627;53.302;-6.362;2023-07-20T04:39:35;13.70;99.90
37788;DHT22;23627;53.302;-6.362;2023-07-20T04:42:00;13.80;99.90
37788;DHT22;23627;53.302;-6.362;2023-07-20T04:44:26;13.70;99.90
37788;DHT22;23627;53.302;-6.362;2023-07-20T04:50:14;13.80;99.90
37788;DHT22;23627;53.302;-6.362;2023-07-20T04:52:39;13.80;99.90
37788;DHT22;23627;53.302;-6.362;2023-07-20T04:55:05;13.80;99.90
37788;DHT22;23627;53.302;-6.362;2023-07-20T04:57:31;13.80;99.90
37788;DHT22;23627;53.302;-6.362;2023-07-20T04:59:57;13.70;99.90
37788;DHT22;23627;53.302;-6.362;2023-07-20T05:02:23;13.80;99.90
37788;DHT22;23627;53.302;-6.362;2023-07-20T05:04:48;13.70;99.90
37788;DHT22;23627;53.302;-6.362;2023-07-20T05:07:14;13.70;99.90
37788;DHT22;23627;53.302;-6.362;2023-07-20T05:09:40;13.70;99.90
37788;DHT22;23627;53.302;-6.362;2023-07-20T05:12:06;13.60;99.90
37788;DHT22;23627;53.302;-6.362;2023-07-20T05:14:32;13.70;99.90
37788;DHT22;23627;53.302;-6.362;2023-07-20T05:16:58;13.70;99.90
37788;DHT22;23627;53.302;-6.362;2023-07-20T05:19:25;13.70;99.90
37788;DHT22;23627;53.302;-6.362;2023-07-20T05:21:51;13.60;99.90
37788;DHT22;23627;53.302;-6.362;2023-07-20T05:24:16;13.70;99.90
37788;DHT22;23627;53.302;-6.362;2023-07-20T05:26:42;13.70;99.90
37788;DHT22;23627;53.302;-6.362;2023-07-20T05:29:08;13.70;99.90
37788;DHT22;23627;53.302;-6.362;2023-07-20T05:31:34;13.60;99.90
37788;DHT22;23627;53.302;-6.362;2023-07-20T05:33:59;13.70;99.90
37788;DHT22;23627;53.302;-6.362;2023-07-20T05:36:25;13.60;99.90
37788;DHT22;23627;53.302;-6.362;2023-07-20T05:38:51;13.70;99.90
37788;DHT22;23627;53.302;-6.362;2023-07-20T05:41:17;13.60;99.90
37788;DHT22;23627;53.302;-6.362;2023-07-20T05:43:42;13.80;99.90
37788;DHT22;23627;53.302;-6.362;2023-07-20T05:46:08;13.80;99.90
37788;DHT22;23627;53.302;-6.362;2023-07-20T05:48:35;13.80;99.90
37788;DHT22;23627;53.302;-6.362;2023-07-20T05:51:01;13.80;99.90
37788;DHT22;23627;53.302;-6.362;2023-07-20T05:53:27;13.80;99.90
37788;DHT22;23627;53.302;-6.362;2023-07-20T05:55:56;13.80;99.90
37788;DHT22;23627;53.302;-6.362;2023-07-20T05:58:21;13.80;99.90
37788;DHT22;23627;53.302;-6.362;2023-07-20T06:00:49;13.80;99.90
37788;DHT22;23627;53.302;-6.362;2023-07-20T06:03:15;13.90;99.90
37788;DHT22;23627;53.302;-6.362;2023-07-20T06:05:42;13.90;99.90
37788;DHT22;23627;53.302;-6.362;2023-07-20T06:08:08;13.90;99.90
37788;DHT22;23627;53.302;-6.362;2023-07-20T06:10:34;14.00;99.90
37788;DHT22;23627;53.302;-6.362;2023-07-20T06:12:59;14.00;99.90
37788;DHT22;23627;53.302;-6.362;2023-07-20T06:15:35;14.00;99.90
37788;DHT22;23627;53.302;-6.362;2023-07-20T06:18:01;14.10;99.90
37788;DHT22;23627;53.302;-6.362;2023-07-20T06:20:27;14.10;99.90
37788;DHT22;23627;53.302;-6.362;2023-07-20T06:22:53;14.20;99.90
37788;DHT22;23627;53.302;-6.362;2023-07-20T06:25:19;14.30;99.90
37788;DHT22;23627;53.302;-6.362;2023-07-20T06:27:46;14.30;99.90
37788;DHT22;23627;53.302;-6.362;2023-07-20T06:30:11;14.30;99.90
37788;DHT22;23627;53.302;-6.362;2023-07-20T06:32:38;14.40;99.90
37788;DHT22;23627;53.302;-6.362;2023-07-20T06:35:04;14.50;99.90
37788;DHT22;23627;53.302;-6.362;2023-07-20T06:37:30;14.60;99.90
37788;DHT22;23627;53.302;-6.362;2023-07-20T06:39:56;14.70;99.90
37788;DHT22;23627;53.302;-6.362;2023-07-20T06:42:22;14.80;99.90
37788;DHT22;23627;53.302;-6.362;2023-07-20T06:44:47;14.90;99.90
37788;DHT22;23627;53.302;-6.362;2023-07-20T06:47:13;14.90;99.90
37788;DHT22;23627;53.302;-6.362;2023-07-20T06:49:39;14.90;99.90
37788;DHT22;23627;53.302;-6.362;2023-07-20T06:52:05;15.00;99.90
37788;DHT22;23627;53.302;-6.362;2023-07-20T06:54:31;15.10;99.90
37788;DHT22;23627;53.302;-6.362;2023-07-20T06:56:56;15.20;99.90
37788;DHT22;23627;53.302;-6.362;2023-07-20T06:59:22;15.20;99.90
37788;DHT22;23627;53.302;-6.362;2023-07-20T07:01:49;15.30;99.90
37788;DHT22;23627;53.302;-6.362;2023-07-20T07:04:15;15.40;99.90
37788;DHT22;23627;53.302;-6.362;2023-07-20T07:06:41;15.40;99.90
37788;DHT22;23627;53.302;-6.362;2023-07-20T07:09:07;15.50;99.90
37788;DHT22;23627;53.302;-6.362;2023-07-20T07:11:33;15.50;99.90
37788;DHT22;23627;53.302;-6.362;2023-07-20T07:13:59;15.60;99.90
37788;DHT22;23627;53.302;-6.362;2023-07-20T07:16:25;15.70;99.90
37788;DHT22;23627;53.302;-6.362;2023-07-20T07:18:51;15.80;99.90
37788;DHT22;23627;53.302;-6.362;2023-07-20T07:21:17;15.90;99.90
37788;DHT22;23627;53.302;-6.362;2023-07-20T07:23:43;15.90;99.90
37788;DHT22;23627;53.302;-6.362;2023-07-20T07:26:09;15.90;99.90
37788;DHT22;23627;53.302;-6.362;2023-07-20T07:28:35;15.90;99.90
37788;DHT22;23627;53.302;-6.362;2023-07-20T07:31:04;15.80;99.90
37788;DHT22;23627;53.302;-6.362;2023-07-20T07:33:31;15.80;99.90
37788;DHT22;23627;53.302;-6.362;2023-07-20T07:35:57;15.70;99.90
37788;DHT22;23627;53.302;-6.362;2023-07-20T07:38:23;15.60;99.90
37788;DHT22;23627;53.302;-6.362;2023-07-20T07:40:49;15.60;99.90
37788;DHT22;23627;53.302;-6.362;2023-07-20T07:43:14;15.60;99.90
37788;DHT22;23627;53.302;-6.362;2023-07-20T07:45:40;15.80;99.90
37788;DHT22;23627;53.302;-6.362;2023-07-20T07:48:07;16.10;99.90
37788;DHT22;23627;53.302;-6.362;2023-07-20T07:50:33;16.20;99.90
37788;DHT22;23627;53.302;-6.362;2023-07-20T07:53:00;16.30;99.90
37788;DHT22;23627;53.302;-6.362;2023-07-20T07:55:26;16.50;99.90
37788;DHT22;23627;53.302;-6.362;2023-07-20T07:57:55;16.70;99.90
37788;DHT22;23627;53.302;-6.362;2023-07-20T08:00:20;16.90;99.90
37788;DHT22;23627;53.302;-6.362;2023-07-20T08:02:46;17.20;99.90
37788;DHT22;23627;53.302;-6.362;2023-07-20T08:05:13;17.50;99.90
37788;DHT22;23627;53.302;-6.362;2023-07-20T08:07:39;17.80;99.90
37788;DHT22;23627;53.302;-6.362;2023-07-20T08:10:06;18.10;99.90
37788;DHT22;23627;53.302;-6.362;2023-07-20T08:12:32;18.30;99.90
37788;DHT22;23627;53.302;-6.362;2023-07-20T08:14:57;18.60;99.90
37788;DHT22;23627;53.302;-6.362;2023-07-20T08:17:23;19.00;99.90
37788;DHT22;23627;53.302;-6.362;2023-07-20T08:19:50;19.10;99.90
37788;DHT22;23627;53.302;-6.362;2023-07-20T08:22:15;19.20;99.90
37788;DHT22;23627;53.302;-6.362;2023-07-20T08:24:42;19.30;99.90
37788;DHT22;23627;53.302;-6.362;2023-07-20T08:27:08;19.50;99.90
37788;DHT22;23627;53.302;-6.362;2023-07-20T08:29:35;19.60;99.90
37788;DHT22;23627;53.302;-6.362;2023-07-20T08:32:01;19.80;99.90
37788;DHT22;23627;53.302;-6.362;2023-07-20T08:34:26;19.90;99.90
37788;DHT22;23627;53.302;-6.362;2023-07-20T08:36:52;20.10;99.90
37788;DHT22;23627;53.302;-6.362;2023-07-20T08:39:18;20.20;99.90
37788;DHT22;23627;53.302;-6.362;2023-07-20T08:41:44;20.30;99.90
37788;DHT22;23627;53.302;-6.362;2023-07-20T08:44:10;20.50;99.90
37788;DHT22;23627;53.302;-6.362;2023-07-20T08:46:38;20.70;99.90
37788;DHT22;23627;53.302;-6.362;2023-07-20T08:49:04;20.70;99.90
37788;DHT22;23627;53.302;-6.362;2023-07-20T08:51:30;20.60;99.90
37788;DHT22;23627;53.302;-6.362;2023-07-20T08:53:58;20.70;99.90
37788;DHT22;23627;53.302;-6.362;2023-07-20T08:56:25;20.70;99.90
37788;DHT22;23627;53.302;-6.362;2023-07-20T08:58:53;20.70;99.90
37788;DHT22;23627;53.302;-6.362;2023-07-20T09:01:19;20.70;99.90
37788;DHT22;23627;53.302;-6.362;2023-07-20T09:03:46;20.70;99.90
37788;DHT22;23627;53.302;-6.362;2023-07-20T09:06:12;20.50;99.90
37788;DHT22;23627;53.302;-6.362;2023-07-20T09:08:39;20.60;99.90
37788;DHT22;23627;53.302;-6.362;2023-07-20T09:11:05;20.80;99.90
37788;DHT22;23627;53.302;-6.362;2023-07-20T09:13:34;21.00;99.90
37788;DHT22;23627;53.302;-6.362;2023-07-20T09:16:00;21.00;99.90
37788;DHT22;23627;53.302;-6.362;2023-07-20T09:18:32;21.00;99.90
37788;DHT22;23627;53.302;-6.362;2023-07-20T09:20:59;21.00;99.90
37788;DHT22;23627;53.302;-6.362;2023-07-20T09:23:34;20.90;99.90
37788;DHT22;23627;53.302;-6.362;2023-07-20T09:26:00;20.70;99.90
37788;DHT22;23627;53.302;-6.362;2023-07-20T09:28:26;20.60;99.90
37788;DHT22;23627;53.302;-6.362;2023-07-20T09:30:54;20.30;99.90
37788;DHT22;23627;53.302;-6.362;2023-07-20T09:33:22;20.10;99.90
37788;DHT22;23627;53.302;-6.362;2023-07-20T09:35:48;20.00;99.90
37788;DHT22;23627;53.302;-6.362;2023-07-20T09:38:14;19.90;99.90
37788;DHT22;23627;53.302;-6.362;2023-07-20T09:40:41;19.70;99.90
37788;DHT22;23627;53.302;-6.362;2023-07-20T09:43:10;19.40;99.90
37788;DHT22;23627;53.302;-6.362;2023-07-20T09:45:40;19.10;99.90
37788;DHT22;23627;53.302;-6.362;2023-07-20T09:48:07;18.90;99.90
37788;DHT22;23627;53.302;-6.362;2023-07-20T09:50:39;18.90;99.90
37788;DHT22;23627;53.302;-6.362;2023-07-20T09:53:07;18.90;99.90
37788;DHT22;23627;53.302;-6.362;2023-07-20T09:55:34;18.90;99.90
37788;DHT22;23627;53.302;-6.362;2023-07-20T09:58:00;19.10;99.90
37788;DHT22;23627;53.302;-6.362;2023-07-20T10:00:26;19.30;99.90
37788;DHT22;23627;53.302;-6.362;2023-07-20T10:02:52;19.40;99.90
37788;DHT22;23627;53.302;-6.362;2023-07-20T10:05:19;19.50;99.90
37788;DHT22;23627;53.302;-6.362;2023-07-20T10:07:50;19.60;99.90
37788;DHT22;23627;53.302;-6.362;2023-07-20T10:10:17;19.50;99.90
37788;DHT22;23627;53.302;-6.362;2023-07-20T10:12:44;19.40;99.90
37788;DHT22;23627;53.302;-6.362;2023-07-20T10:18:51;19.20;99.90
37788;DHT22;23627;53.302;-6.362;2023-07-20T10:20:46;19.10;99.90
37788;DHT22;23627;53.302;-6.362;2023-07-20T10:23:13;19.10;99.90
37788;DHT22;23627;53.302;-6.362;2023-07-20T10:25:39;19.20;99.90
37788;DHT22;23627;53.302;-6.362;2023-07-20T10:28:07;19.20;99.90
37788;DHT22;23627;53.302;-6.362;2023-07-20T10:30:36;19.40;99.90
37788;DHT22;23627;53.302;-6.362;2023-07-20T10:33:05;19.60;99.90
37788;DHT22;23627;53.302;-6.362;2023-07-20T10:35:51;19.80;99.90
37788;DHT22;23627;53.302;-6.362;2023-07-20T10:38:17;20.00;99.90
37788;DHT22;23627;53.302;-6.362;2023-07-20T10:40:54;20.10;99.90
37788;DHT22;23627;53.302;-6.362;2023-07-20T10:43:20;20.20;99.90
37788;DHT22;23627;53.302;-6.362;2023-07-20T10:45:53;20.30;99.90
37788;DHT22;23627;53.302;-6.362;2023-07-20T10:48:23;20.20;99.90
37788;DHT22;23627;53.302;-6.362;2023-07-20T10:51:12;20.00;99.90
37788;DHT22;23627;53.302;-6.362;2023-07-20T10:53:39;19.70;99.90
37788;DHT22;23627;53.302;-6.362;2023-07-20T10:56:11;19.60;99.90
37788;DHT22;23627;53.302;-6.362;2023-07-20T10:58:37;19.50;99.90
37788;DHT22;23627;53.302;-6.362;2023-07-20T11:01:04;19.30;99.90
37788;DHT22;23627;53.302;-6.362;2023-07-20T11:03:33;19.10;99.90
37788;DHT22;23627;53.302;-6.362;2023-07-20T11:05:59;19.10;99.90
37788;DHT22;23627;53.302;-6.362;2023-07-20T11:08:41;18.80;99.90
37788;DHT22;23627;53.302;-6.362;2023-07-20T11:11:27;18.70;99.90
37788;DHT22;23627;53.302;-6.362;2023-07-20T11:14:10;18.70;99.90
37788;DHT22;23627;53.302;-6.362;2023-07-20T11:16:45;18.70;99.90
37788;DHT22;23627;53.302;-6.362;2023-07-20T11:19:19;19.00;99.90
37788;DHT22;23627;53.302;-6.362;2023-07-20T11:21:49;19.10;99.90
37788;DHT22;23627;53.302;-6.362;2023-07-20T11:24:16;19.10;99.90
37788;DHT22;23627;53.302;-6.362;2023-07-20T11:26:54;19.20;99.90
37788;DHT22;23627;53.302;-6.362;2023-07-20T11:29:22;19.10;99.90
37788;DHT22;23627;53.302;-6.362;2023-07-20T11:31:49;19.00;99.90
37788;DHT22;23627;53.302;-6.362;2023-07-20T11:34:15;18.90;99.90
37788;DHT22;23627;53.302;-6.362;2023-07-20T11:36:42;18.80;99.90
37788;DHT22;23627;53.302;-6.362;2023-07-20T11:39:13;18.70;99.90
37788;DHT22;23627;53.302;-6.362;2023-07-20T11:41:44;18.70;99.90
37788;DHT22;23627;53.302;-6.362;2023-07-20T11:44:10;18.70;99.90
37788;DHT22;23627;53.302;-6.362;2023-07-20T11:46:42;18.70;99.90
37788;DHT22;23627;53.302;-6.362;2023-07-20T11:49:09;18.70;99.90
37788;DHT22;23627;53.302;-6.362;2023-07-20T11:51:36;18.90;99.90
37788;DHT22;23627;53.302;-6.362;2023-07-20T11:54:03;19.10;99.90
37788;DHT22;23627;53.302;-6.362;2023-07-20T11:56:29;19.20;99.90
37788;DHT22;23627;53.302;-6.362;2023-07-20T11:58:57;19.30;99.90
37788;DHT22;23627;53.302;-6.362;2023-07-20T12:01:26;19.30;99.90
37788;DHT22;23627;53.302;-6.362;2023-07-20T12:04:04;19.30;99.90
37788;DHT22;23627;53.302;-6.362;2023-07-20T12:06:32;19.50;99.90
37788;DHT22;23627;53.302;-6.362;2023-07-20T12:08:58;19.70;99.90
37788;DHT22;23627;53.302;-6.362;2023-07-20T12:11:34;19.90;99.90
37788;DHT22;23627;53.302;-6.362;2023-07-20T12:14:00;20.10;99.90
37788;DHT22;23627;53.302;-6.362;2023-07-20T12:16:27;20.10;99.90
37788;DHT22;23627;53.302;-6.362;2023-07-20T12:19:10;20.10;99.90
37788;DHT22;23627;53.302;-6.362;2023-07-20T12:21:38;20.10;99.90
37788;DHT22;23627;53.302;-6.362;2023-07-20T12:24:06;20.10;99.90
37788;DHT22;23627;53.302;-6.362;2023-07-20T12:26:33;20.00;99.90
37788;DHT22;23627;53.302;-6.362;2023-07-20T12:28:59;20.00;99.90
37788;DHT22;23627;53.302;-6.362;2023-07-20T12:31:26;20.00;99.90
37788;DHT22;23627;53.302;-6.362;2023-07-20T12:33:53;19.90;99.90
37788;DHT22;23627;53.302;-6.362;2023-07-20T12:36:21;20.00;99.90
37788;DHT22;23627;53.302;-6.362;2023-07-20T12:38:47;20.10;99.90
37788;DHT22;23627;53.302;-6.362;2023-07-20T12:41:13;20.20;99.90
37788;DHT22;23627;53.302;-6.362;2023-07-20T12:43:40;20.20;99.90
37788;DHT22;23627;53.302;-6.362;2023-07-20T12:46:06;20.30;99.90
37788;DHT22;23627;53.302;-6.362;2023-07-20T12:48:32;20.40;99.90
37788;DHT22;23627;53.302;-6.362;2023-07-20T12:50:58;20.60;99.90
37788;DHT22;23627;53.302;-6.362;2023-07-20T12:53:24;20.60;99.90
37788;DHT22;23627;53.302;-6.362;2023-07-20T12:55:50;20.50;99.90
37788;DHT22;23627;53.302;-6.362;2023-07-20T12:58:15;20.40;99.90
37788;DHT22;23627;53.302;-6.362;2023-07-20T13:00:41;20.40;99.90
37788;DHT22;23627;53.302;-6.362;2023-07-20T13:03:07;20.40;99.90
37788;DHT22;23627;53.302;-6.362;2023-07-20T13:05:34;20.30;99.90
37788;DHT22;23627;53.302;-6.362;2023-07-20T13:08:01;20.20;99.90
37788;DHT22;23627;53.302;-6.362;2023-07-20T13:10:27;20.10;99.90
37788;DHT22;23627;53.302;-6.362;2023-07-20T13:12:55;20.00;99.90
37788;DHT22;23627;53.302;-6.362;2023-07-20T13:15:20;19.90;99.90
37788;DHT22;23627;53.302;-6.362;2023-07-20T13:17:46;19.80;99.90
37788;DHT22;23627;53.302;-6.362;2023-07-20T13:20:14;19.70;99.90
37788;DHT22;23627;53.302;-6.362;2023-07-20T13:22:40;19.50;99.90
37788;DHT22;23627;53.302;-6.362;2023-07-20T13:25:07;19.30;99.90
37788;DHT22;23627;53.302;-6.362;2023-07-20T13:27:33;19.30;99.90
37788;DHT22;23627;53.302;-6.362;2023-07-20T13:29:59;19.20;99.90
37788;DHT22;23627;53.302;-6.362;2023-07-20T13:32:26;19.30;99.90
37788;DHT22;23627;53.302;-6.362;2023-07-20T13:34:52;19.40;99.90
37788;DHT22;23627;53.302;-6.362;2023-07-20T13:37:18;19.50;99.90
37788;DHT22;23627;53.302;-6.362;2023-07-20T13:39:44;19.50;99.90
37788;DHT22;23627;53.302;-6.362;2023-07-20T13:42:10;19.50;99.90
37788;DHT22;23627;53.302;-6.362;2023-07-20T13:44:38;19.30;99.90
37788;DHT22;23627;53.302;-6.362;2023-07-20T13:47:04;19.20;99.90
37788;DHT22;23627;53.302;-6.362;2023-07-20T13:49:33;19.20;99.90
37788;DHT22;23627;53.302;-6.362;2023-07-20T13:51:59;19.00;99.90
37788;DHT22;23627;53.302;-6.362;2023-07-20T13:54:25;18.90;99.90
37788;DHT22;23627;53.302;-6.362;2023-07-20T13:56:51;18.70;99.90
37788;DHT22;23627;53.302;-6.362;2023-07-20T13:59:18;18.60;99.90
37788;DHT22;23627;53.302;-6.362;2023-07-20T14:01:43;18.50;99.90
37788;DHT22;23627;53.302;-6.362;2023-07-20T14:04:09;18.50;99.90
37788;DHT22;23627;53.302;-6.362;2023-07-20T14:06:35;18.50;99.90
37788;DHT22;23627;53.302;-6.362;2023-07-20T14:09:01;18.50;99.90
37788;DHT22;23627;53.302;-6.362;2023-07-20T14:11:29;18.50;99.90
37788;DHT22;23627;53.302;-6.362;2023-07-20T14:13:54;18.50;99.90
37788;DHT22;23627;53.302;-6.362;2023-07-20T14:16:23;18.50;99.90
37788;DHT22;23627;53.302;-6.362;2023-07-20T14:18:49;18.50;99.90
37788;DHT22;23627;53.302;-6.362;2023-07-20T14:21:16;18.50;99.90
37788;DHT22;23627;53.302;-6.362;2023-07-20T14:23:44;18.50;99.90
37788;DHT22;23627;53.302;-6.362;2023-07-20T14:26:10;18.50;99.90
37788;DHT22;23627;53.302;-6.362;2023-07-20T14:28:35;18.60;99.90
37788;DHT22;23627;53.302;-6.362;2023-07-20T14:31:01;18.60;99.90
37788;DHT22;23627;53.302;-6.362;2023-07-20T14:33:27;18.70;99.90
37788;DHT22;23627;53.302;-6.362;2023-07-20T14:35:52;18.80;99.90
37788;DHT22;23627;53.302;-6.362;2023-07-20T14:38:18;18.70;99.90
37788;DHT22;23627;53.302;-6.362;2023-07-20T14:40:44;18.80;99.90
37788;DHT22;23627;53.302;-6.362;2023-07-20T14:43:11;18.90;99.90
37788;DHT22;23627;53.302;-6.362;2023-07-20T14:45:36;18.90;99.90
37788;DHT22;23627;53.302;-6.362;2023-07-20T14:48:06;18.90;99.90
37788;DHT22;23627;53.302;-6.362;2023-07-20T14:50:31;19.00;99.90
37788;DHT22;23627;53.302;-6.362;2023-07-20T14:52:57;19.10;99.90
37788;DHT22;23627;53.302;-6.362;2023-07-20T14:55:23;19.20;99.90
37788;DHT22;23627;53.302;-6.362;2023-07-20T14:57:49;19.30;99.90
37788;DHT22;23627;53.302;-6.362;2023-07-20T15:00:15;19.40;99.90
37788;DHT22;23627;53.302;-6.362;2023-07-20T15:02:41;19.50;99.90
37788;DHT22;23627;53.302;-6.362;2023-07-20T15:05:07;19.60;99.90
37788;DHT22;23627;53.302;-6.362;2023-07-20T15:07:33;19.80;99.90
37788;DHT22;23627;53.302;-6.362;2023-07-20T15:09:59;20.00;99.90
37788;DHT22;23627;53.302;-6.362;2023-07-20T15:12:24;20.00;99.90
37788;DHT22;23627;53.302;-6.362;2023-07-20T15:15:10;20.00;99.90
37788;DHT22;23627;53.302;-6.362;2023-07-20T15:17:37;20.10;99.90
37788;DHT22;23627;53.302;-6.362;2023-07-20T15:20:04;20.20;99.90
37788;DHT22;23627;53.302;-6.362;2023-07-20T15:22:31;20.20;99.90
37788;DHT22;23627;53.302;-6.362;2023-07-20T15:24:57;20.30;99.90
37788;DHT22;23627;53.302;-6.362;2023-07-20T15:27:23;20.30;99.90
37788;DHT22;23627;53.302;-6.362;2023-07-20T15:29:49;20.40;99.90
37788;DHT22;23627;53.302;-6.362;2023-07-20T15:32:15;20.50;99.90